sensor_id;sensor_type;location;lat;lon;timestamp;pressure;altitude;pressure_sealevel;temperature;humidity
25510;BME280;13413;52.336;21.200;2022-10-22T00:02:02;100256.90;;;11.43;65.31
25510;BME280;13413;52.336;21.200;2022-10-22T00:10:07;100248.48;;;11.39;65.77
25510;BME280;13413;52.336;21.200;2022-10-22T00:13:26;100238.48;;;11.43;65.89
25510;BME280;13413;52.336;21.200;2022-10-22T00:16:52;100233.16;;;11.46;65.77
25510;BME280;13413;52.336;21.200;2022-10-22T00:28:59;100226.79;;;11.56;66.30
25510;BME280;13413;52.336;21.200;2022-10-22T00:32:19;100216.71;;;11.54;66.34
25510;BME280;13413;52.336;21.200;2022-10-22T00:35:44;100220.73;;;11.52;66.63
25510;BME280;13413;52.336;21.200;2022-10-22T00:39:20;100220.03;;;11.52;66.72
25510;BME280;13413;52.336;21.200;2022-10-22T00:42:39;100217.56;;;11.53;66.84
25510;BME280;13413;52.336;21.200;2022-10-22T00:45:59;100212.02;;;11.55;66.91
25510;BME280;13413;52.336;21.200;2022-10-22T00:49:33;100200.67;;;11.52;67.56
25510;BME280;13413;52.336;21.200;2022-10-22T00:53:09;100202.36;;;11.56;67.29
25510;BME280;13413;52.336;21.200;2022-10-22T00:56:38;100195.94;;;11.59;67.63
25510;BME280;13413;52.336;21.200;2022-10-22T01:09:02;100183.20;;;11.68;67.73
25510;BME280;13413;52.336;21.200;2022-10-22T01:12:30;100183.52;;;11.70;67.89
25510;BME280;13413;52.336;21.200;2022-10-22T01:15:58;100176.73;;;11.75;67.68
25510;BME280;13413;52.336;21.200;2022-10-22T01:19:43;100178.80;;;11.80;67.75
25510;BME280;13413;52.336;21.200;2022-10-22T01:23:19;100173.71;;;11.83;67.81
25510;BME280;13413;52.336;21.200;2022-10-22T01:26:59;100170.62;;;11.84;67.99
25510;BME280;13413;52.336;21.200;2022-10-22T01:30:27;100170.89;;;11.83;68.10
25510;BME280;13413;52.336;21.200;2022-10-22T01:34:02;100176.17;;;11.88;67.99
25510;BME280;13413;52.336;21.200;2022-10-22T01:37:26;100177.03;;;11.91;67.94
25510;BME280;13413;52.336;21.200;2022-10-22T01:40:51;100169.59;;;11.94;67.96
25510;BME280;13413;52.336;21.200;2022-10-22T01:44:26;100161.13;;;11.94;68.07
25510;BME280;13413;52.336;21.200;2022-10-22T01:48:11;100157.39;;;11.97;68.19
25510;BME280;13413;52.336;21.200;2022-10-22T01:51:48;100156.16;;;11.96;68.53
25510;BME280;13413;52.336;21.200;2022-10-22T01:55:27;100150.10;;;11.99;68.33
25510;BME280;13413;52.336;21.200;2022-10-22T01:58:53;100149.79;;;11.97;68.61
25510;BME280;13413;52.336;21.200;2022-10-22T02:02:23;100152.12;;;12.01;68.39
25510;BME280;13413;52.336;21.200;2022-10-22T02:05:48;100152.43;;;12.04;68.54
25510;BME280;13413;52.336;21.200;2022-10-22T02:09:24;100159.73;;;12.06;68.57
25510;BME280;13413;52.336;21.200;2022-10-22T02:12:59;100155.88;;;12.04;68.68
25510;BME280;13413;52.336;21.200;2022-10-22T02:16:24;100152.09;;;12.07;68.66
25510;BME280;13413;52.336;21.200;2022-10-22T02:19:56;100146.71;;;12.09;68.73
25510;BME280;13413;52.336;21.200;2022-10-22T02:23:17;100143.27;;;12.07;68.91
25510;BME280;13413;52.336;21.200;2022-10-22T02:26:51;100138.45;;;12.06;69.07
25510;BME280;13413;52.336;21.200;2022-10-22T02:30:27;100136.67;;;12.03;69.20
25510;BME280;13413;52.336;21.200;2022-10-22T02:33:49;100139.39;;;12.04;69.25
25510;BME280;13413;52.336;21.200;2022-10-22T02:37:11;100145.73;;;12.04;69.63
25510;BME280;13413;52.336;21.200;2022-10-22T02:40:38;100147.05;;;12.05;69.62
25510;BME280;13413;52.336;21.200;2022-10-22T02:44:11;100143.51;;;12.07;69.47
25510;BME280;13413;52.336;21.200;2022-10-22T02:47:38;100138.63;;;12.06;69.77
25510;BME280;13413;52.336;21.200;2022-10-22T02:50:57;100133.28;;;12.08;69.81
25510;BME280;13413;52.336;21.200;2022-10-22T02:54:30;100130.48;;;12.09;69.75
25510;BME280;13413;52.336;21.200;2022-10-22T02:57:50;100141.05;;;12.07;70.24
25510;BME280;13413;52.336;21.200;2022-10-22T03:01:10;100139.40;;;12.09;70.19
25510;BME280;13413;52.336;21.200;2022-10-22T03:04:30;100137.91;;;12.09;70.16
25510;BME280;13413;52.336;21.200;2022-10-22T03:07:51;100137.94;;;12.12;70.09
25510;BME280;13413;52.336;21.200;2022-10-22T03:11:10;100143.65;;;12.14;70.00
25510;BME280;13413;52.336;21.200;2022-10-22T03:14:37;100142.70;;;12.17;70.02
25510;BME280;13413;52.336;21.200;2022-10-22T03:18:10;100139.39;;;12.18;70.04
25510;BME280;13413;52.336;21.200;2022-10-22T03:21:34;100135.08;;;12.20;70.15
25510;BME280;13413;52.336;21.200;2022-10-22T03:25:13;100132.66;;;12.21;70.21
25510;BME280;13413;52.336;21.200;2022-10-22T03:28:34;100129.64;;;12.21;70.27
25510;BME280;13413;52.336;21.200;2022-10-22T03:31:55;100130.52;;;12.23;70.30
25510;BME280;13413;52.336;21.200;2022-10-22T03:39:58;100129.38;;;12.23;70.49
25510;BME280;13413;52.336;21.200;2022-10-22T03:43:18;100126.36;;;12.26;70.38
25510;BME280;13413;52.336;21.200;2022-10-22T03:46:38;100134.28;;;12.29;70.49
25510;BME280;13413;52.336;21.200;2022-10-22T03:49:58;100135.61;;;12.30;70.58
25510;BME280;13413;52.336;21.200;2022-10-22T03:53:32;100142.52;;;12.30;70.59
25510;BME280;13413;52.336;21.200;2022-10-22T03:56:52;100145.46;;;12.28;70.65
25510;BME280;13413;52.336;21.200;2022-10-22T04:09:25;100128.00;;;12.35;70.86
25510;BME280;13413;52.336;21.200;2022-10-22T04:12:59;100125.48;;;12.36;70.83
25510;BME280;13413;52.336;21.200;2022-10-22T04:16:20;100138.81;;;12.35;70.85
25510;BME280;13413;52.336;21.200;2022-10-22T04:19:40;100150.23;;;12.36;70.88
25510;BME280;13413;52.336;21.200;2022-10-22T04:23:00;100143.45;;;12.37;71.03
25510;BME280;13413;52.336;21.200;2022-10-22T04:26:20;100127.29;;;12.38;70.97
25510;BME280;13413;52.336;21.200;2022-10-22T04:29:44;100117.73;;;12.40;71.07
25510;BME280;13413;52.336;21.200;2022-10-22T04:40:09;100102.54;;;12.46;71.00
25510;BME280;13413;52.336;21.200;2022-10-22T04:43:29;100104.85;;;12.47;70.98
25510;BME280;13413;52.336;21.200;2022-10-22T04:46:49;100107.05;;;12.45;71.17
25510;BME280;13413;52.336;21.200;2022-10-22T04:50:18;100099.29;;;12.48;71.12
25510;BME280;13413;52.336;21.200;2022-10-22T04:53:53;100095.95;;;12.46;71.19
25510;BME280;13413;52.336;21.200;2022-10-22T04:57:14;100088.05;;;12.45;71.39
25510;BME280;13413;52.336;21.200;2022-10-22T05:05:16;100080.19;;;12.56;71.12
25510;BME280;13413;52.336;21.200;2022-10-22T05:08:36;100090.61;;;12.56;71.07
25510;BME280;13413;52.336;21.200;2022-10-22T05:11:57;100088.75;;;12.57;71.14
25510;BME280;13413;52.336;21.200;2022-10-22T05:18:58;100092.64;;;12.57;71.18
25510;BME280;13413;52.336;21.200;2022-10-22T05:22:25;100094.42;;;12.61;71.15
25510;BME280;13413;52.336;21.200;2022-10-22T05:30:21;100102.48;;;12.66;71.17
25510;BME280;13413;52.336;21.200;2022-10-22T05:33:41;100098.42;;;12.64;71.18
25510;BME280;13413;52.336;21.200;2022-10-22T05:37:01;100104.80;;;12.63;71.34
25510;BME280;13413;52.336;21.200;2022-10-22T05:40:26;100115.98;;;12.65;71.36
25510;BME280;13413;52.336;21.200;2022-10-22T05:44:00;100120.88;;;12.68;71.37
25510;BME280;13413;52.336;21.200;2022-10-22T05:47:29;100120.14;;;12.68;71.52
25510;BME280;13413;52.336;21.200;2022-10-22T05:50:59;100116.27;;;12.69;71.70
25510;BME280;13413;52.336;21.200;2022-10-22T05:54:20;100113.02;;;12.70;71.60
25510;BME280;13413;52.336;21.200;2022-10-22T05:57:41;100114.48;;;12.72;71.72
25510;BME280;13413;52.336;21.200;2022-10-22T06:01:05;100111.45;;;12.79;71.60
25510;BME280;13413;52.336;21.200;2022-10-22T06:04:25;100112.48;;;12.82;71.67
25510;BME280;13413;52.336;21.200;2022-10-22T06:07:58;100113.44;;;12.84;71.65
25510;BME280;13413;52.336;21.200;2022-10-22T06:11:19;100099.04;;;12.86;71.66
25510;BME280;13413;52.336;21.200;2022-10-22T06:14:53;100100.34;;;12.90;71.64
25510;BME280;13413;52.336;21.200;2022-10-22T06:18:27;100115.91;;;12.95;71.70
25510;BME280;13413;52.336;21.200;2022-10-22T06:21:48;100119.02;;;12.97;71.60
25510;BME280;13413;52.336;21.200;2022-10-22T06:25:20;100115.56;;;12.96;71.70
25510;BME280;13413;52.336;21.200;2022-10-22T06:28:40;100111.66;;;13.02;71.63
25510;BME280;13413;52.336;21.200;2022-10-22T06:32:00;100122.59;;;13.00;71.76
25510;BME280;13413;52.336;21.200;2022-10-22T06:35:27;100125.06;;;12.98;71.84
25510;BME280;13413;52.336;21.200;2022-10-22T06:39:01;100124.55;;;12.98;71.86
25510;BME280;13413;52.336;21.200;2022-10-22T06:42:29;100133.40;;;13.01;71.83
25510;BME280;13413;52.336;21.200;2022-10-22T06:45:49;100133.15;;;12.99;71.82
25510;BME280;13413;52.336;21.200;2022-10-22T06:49:12;100139.67;;;13.02;71.86
25510;BME280;13413;52.336;21.200;2022-10-22T06:52:39;100144.10;;;13.02;71.86
25510;BME280;13413;52.336;21.200;2022-10-22T06:56:01;100136.13;;;13.05;71.80
25510;BME280;13413;52.336;21.200;2022-10-22T06:59:36;100137.29;;;13.08;71.90
25510;BME280;13413;52.336;21.200;2022-10-22T07:03:09;100138.52;;;13.11;71.88
25510;BME280;13413;52.336;21.200;2022-10-22T07:06:31;100133.06;;;13.15;71.98
25510;BME280;13413;52.336;21.200;2022-10-22T07:10:06;100128.23;;;13.17;71.94
25510;BME280;13413;52.336;21.200;2022-10-22T07:13:40;100141.57;;;13.21;71.96
25510;BME280;13413;52.336;21.200;2022-10-22T07:17:00;100153.77;;;13.22;71.88
25510;BME280;13413;52.336;21.200;2022-10-22T07:20:20;100166.36;;;13.24;71.93
25510;BME280;13413;52.336;21.200;2022-10-22T07:23:54;100164.14;;;13.22;72.11
25510;BME280;13413;52.336;21.200;2022-10-22T07:27:15;100169.95;;;13.26;71.96
25510;BME280;13413;52.336;21.200;2022-10-22T07:39:46;100175.85;;;13.42;71.90
25510;BME280;13413;52.336;21.200;2022-10-22T07:43:05;100175.27;;;13.47;71.83
25510;BME280;13413;52.336;21.200;2022-10-22T07:46:25;100169.61;;;13.52;71.72
25510;BME280;13413;52.336;21.200;2022-10-22T07:49:59;100157.13;;;13.55;71.75
25510;BME280;13413;52.336;21.200;2022-10-22T08:08:49;100150.56;;;13.68;71.82
25510;BME280;13413;52.336;21.200;2022-10-22T08:12:09;100155.86;;;13.69;71.89
25510;BME280;13413;52.336;21.200;2022-10-22T08:15:36;100160.36;;;13.69;71.94
25510;BME280;13413;52.336;21.200;2022-10-22T08:18:56;100168.05;;;13.71;72.04
25510;BME280;13413;52.336;21.200;2022-10-22T08:22:17;100163.73;;;13.69;71.99
25510;BME280;13413;52.336;21.200;2022-10-22T08:25:44;100172.20;;;13.72;72.05
25510;BME280;13413;52.336;21.200;2022-10-22T08:29:17;100178.40;;;13.75;72.09
25510;BME280;13413;52.336;21.200;2022-10-22T08:32:43;100179.23;;;13.79;72.09
25510;BME280;13413;52.336;21.200;2022-10-22T08:36:04;100183.09;;;13.83;72.15
25510;BME280;13413;52.336;21.200;2022-10-22T08:39:38;100184.91;;;13.88;72.11
25510;BME280;13413;52.336;21.200;2022-10-22T08:43:08;100182.19;;;13.91;72.10
25510;BME280;13413;52.336;21.200;2022-10-22T08:46:48;100181.64;;;13.93;72.17
25510;BME280;13413;52.336;21.200;2022-10-22T08:50:18;100177.51;;;13.97;72.04
25510;BME280;13413;52.336;21.200;2022-10-22T08:53:48;100174.84;;;13.97;72.11
25510;BME280;13413;52.336;21.200;2022-10-22T08:57:29;100179.12;;;14.01;72.22
25510;BME280;13413;52.336;21.200;2022-10-22T09:00:57;100180.56;;;14.05;72.14
25510;BME280;13413;52.336;21.200;2022-10-22T09:10:23;100189.98;;;14.17;72.06
25510;BME280;13413;52.336;21.200;2022-10-22T09:13:45;100193.16;;;14.24;72.00
25510;BME280;13413;52.336;21.200;2022-10-22T09:17:12;100191.14;;;14.26;71.99
25510;BME280;13413;52.336;21.200;2022-10-22T09:20:44;100196.29;;;14.28;72.05
25510;BME280;13413;52.336;21.200;2022-10-22T09:27:57;100195.99;;;14.36;72.10
25510;BME280;13413;52.336;21.200;2022-10-22T09:35:50;100200.55;;;14.38;72.38
25510;BME280;13413;52.336;21.200;2022-10-22T09:39:25;100194.30;;;14.38;72.24
25510;BME280;13413;52.336;21.200;2022-10-22T09:42:59;100191.85;;;14.39;72.39
25510;BME280;13413;52.336;21.200;2022-10-22T09:46:23;100182.83;;;14.42;72.35
25510;BME280;13413;52.336;21.200;2022-10-22T09:49:42;100177.94;;;14.46;72.43
25510;BME280;13413;52.336;21.200;2022-10-22T09:53:10;100177.60;;;14.47;72.30
25510;BME280;13413;52.336;21.200;2022-10-22T09:56:35;100178.46;;;14.46;72.30
25510;BME280;13413;52.336;21.200;2022-10-22T09:59:57;100176.46;;;14.50;72.30
25510;BME280;13413;52.336;21.200;2022-10-22T10:03:33;100174.41;;;14.48;72.34
25510;BME280;13413;52.336;21.200;2022-10-22T10:06:55;100177.49;;;14.53;72.23
25510;BME280;13413;52.336;21.200;2022-10-22T10:10:29;100168.13;;;14.53;72.18
25510;BME280;13413;52.336;21.200;2022-10-22T10:13:57;100173.46;;;14.61;72.28
25510;BME280;13413;52.336;21.200;2022-10-22T10:17:24;100173.80;;;14.61;72.27
25510;BME280;13413;52.336;21.200;2022-10-22T10:20:51;100180.16;;;14.65;72.43
25510;BME280;13413;52.336;21.200;2022-10-22T10:24:33;100184.30;;;14.68;72.33
25510;BME280;13413;52.336;21.200;2022-10-22T10:28:00;100186.73;;;14.69;72.26
25510;BME280;13413;52.336;21.200;2022-10-22T10:31:36;100188.04;;;14.67;72.32
25510;BME280;13413;52.336;21.200;2022-10-22T10:35:21;100192.68;;;14.69;72.37
25510;BME280;13413;52.336;21.200;2022-10-22T10:39:02;100195.27;;;14.68;72.39
25510;BME280;13413;52.336;21.200;2022-10-22T10:42:31;100191.86;;;14.69;72.43
25510;BME280;13413;52.336;21.200;2022-10-22T10:45:59;100189.96;;;14.71;72.36
25510;BME280;13413;52.336;21.200;2022-10-22T10:49:35;100183.92;;;14.73;72.43
25510;BME280;13413;52.336;21.200;2022-10-22T10:53:16;100192.85;;;14.76;72.35
25510;BME280;13413;52.336;21.200;2022-10-22T10:56:52;100201.55;;;14.80;72.29
25510;BME280;13413;52.336;21.200;2022-10-22T11:00:16;100200.85;;;14.81;72.30
25510;BME280;13413;52.336;21.200;2022-10-22T11:04:07;100203.02;;;14.87;72.24
25510;BME280;13413;52.336;21.200;2022-10-22T11:07:38;100204.33;;;14.88;72.14
25510;BME280;13413;52.336;21.200;2022-10-22T11:11:02;100198.51;;;14.89;72.19
25510;BME280;13413;52.336;21.200;2022-10-22T11:14:28;100201.96;;;14.95;72.12
25510;BME280;13413;52.336;21.200;2022-10-22T11:17:49;100198.98;;;14.95;72.16
25510;BME280;13413;52.336;21.200;2022-10-22T11:21:17;100186.70;;;14.97;72.04
25510;BME280;13413;52.336;21.200;2022-10-22T11:24:44;100175.73;;;14.98;72.12
25510;BME280;13413;52.336;21.200;2022-10-22T11:28:24;100173.06;;;14.99;72.14
25510;BME280;13413;52.336;21.200;2022-10-22T11:31:47;100172.32;;;14.99;72.22
25510;BME280;13413;52.336;21.200;2022-10-22T11:35:25;100168.37;;;15.02;72.15
25510;BME280;13413;52.336;21.200;2022-10-22T11:38:45;100170.66;;;15.01;72.25
25510;BME280;13413;52.336;21.200;2022-10-22T11:42:48;100174.80;;;15.07;72.18
25510;BME280;13413;52.336;21.200;2022-10-22T11:46:34;100174.17;;;15.11;72.22
25510;BME280;13413;52.336;21.200;2022-10-22T11:50:21;100174.67;;;15.12;72.03
25510;BME280;13413;52.336;21.200;2022-10-22T11:53:58;100169.11;;;15.12;72.09
25510;BME280;13413;52.336;21.200;2022-10-22T12:14:55;100153.19;;;15.23;72.25
25510;BME280;13413;52.336;21.200;2022-10-22T12:18:17;100150.59;;;15.25;72.26
25510;BME280;13413;52.336;21.200;2022-10-22T12:21:38;100149.26;;;15.29;72.27
25510;BME280;13413;52.336;21.200;2022-10-22T12:25:18;100145.67;;;15.32;72.26
25510;BME280;13413;52.336;21.200;2022-10-22T12:30:22;100144.27;;;15.41;72.31
25510;BME280;13413;52.336;21.200;2022-10-22T12:37:04;100139.17;;;15.42;72.19
25510;BME280;13413;52.336;21.200;2022-10-22T12:40:34;100137.00;;;15.43;72.12
25510;BME280;13413;52.336;21.200;2022-10-22T12:44:10;100136.27;;;15.46;72.17
25510;BME280;13413;52.336;21.200;2022-10-22T12:47:30;100137.71;;;15.47;72.27
25510;BME280;13413;52.336;21.200;2022-10-22T12:50:50;100140.25;;;15.49;72.22
25510;BME280;13413;52.336;21.200;2022-10-22T12:54:30;100139.94;;;15.51;72.16
25510;BME280;13413;52.336;21.200;2022-10-22T12:58:07;100138.29;;;15.55;72.15
25510;BME280;13413;52.336;21.200;2022-10-22T13:01:28;100144.33;;;15.57;72.20
25510;BME280;13413;52.336;21.200;2022-10-22T13:05:21;100140.76;;;15.61;72.19
25510;BME280;13413;52.336;21.200;2022-10-22T13:09:12;100138.86;;;15.63;72.19
25510;BME280;13413;52.336;21.200;2022-10-22T13:12:42;100137.91;;;15.63;72.13
25510;BME280;13413;52.336;21.200;2022-10-22T13:24:58;100156.52;;;15.75;72.06
25510;BME280;13413;52.336;21.200;2022-10-22T13:28:22;100161.16;;;15.78;72.00
25510;BME280;13413;52.336;21.200;2022-10-22T13:31:49;100157.89;;;15.81;72.12
25510;BME280;13413;52.336;21.200;2022-10-22T13:35:23;100166.52;;;15.86;72.12
25510;BME280;13413;52.336;21.200;2022-10-22T13:38:45;100160.09;;;15.86;72.13
25510;BME280;13413;52.336;21.200;2022-10-22T13:42:13;100156.13;;;15.89;72.18
25510;BME280;13413;52.336;21.200;2022-10-22T13:55:00;100144.98;;;15.95;71.94
25510;BME280;13413;52.336;21.200;2022-10-22T13:58:22;100147.69;;;15.95;71.99
25510;BME280;13413;52.336;21.200;2022-10-22T14:01:49;100139.83;;;15.95;72.03
25510;BME280;13413;52.336;21.200;2022-10-22T14:05:23;100141.31;;;15.93;72.04
25510;BME280;13413;52.336;21.200;2022-10-22T14:10:19;100147.08;;;15.95;72.06
25510;BME280;13413;52.336;21.200;2022-10-22T14:13:40;100145.44;;;15.95;72.08
25510;BME280;13413;52.336;21.200;2022-10-22T14:17:11;100145.12;;;15.98;71.99
25510;BME280;13413;52.336;21.200;2022-10-22T14:20:41;100137.38;;;15.99;71.96
25510;BME280;13413;52.336;21.200;2022-10-22T14:24:14;100138.83;;;15.97;71.88
25510;BME280;13413;52.336;21.200;2022-10-22T14:27:35;100136.95;;;15.97;71.95
25510;BME280;13413;52.336;21.200;2022-10-22T14:30:57;100132.71;;;15.95;71.86
25510;BME280;13413;52.336;21.200;2022-10-22T14:39:23;100131.85;;;15.94;72.01
25510;BME280;13413;52.336;21.200;2022-10-22T14:42:48;100126.64;;;15.93;71.95
25510;BME280;13413;52.336;21.200;2022-10-22T14:46:08;100121.02;;;15.90;71.99
25510;BME280;13413;52.336;21.200;2022-10-22T14:49:41;100114.50;;;15.93;72.08
25510;BME280;13413;52.336;21.200;2022-10-22T14:53:14;100114.88;;;15.90;72.01
25510;BME280;13413;52.336;21.200;2022-10-22T14:56:33;100119.23;;;15.90;72.05
25510;BME280;13413;52.336;21.200;2022-10-22T15:00:12;100115.84;;;15.89;72.09
25510;BME280;13413;52.336;21.200;2022-10-22T15:03:46;100124.73;;;15.89;72.08
25510;BME280;13413;52.336;21.200;2022-10-22T15:10:41;100131.16;;;15.91;72.05
25510;BME280;13413;52.336;21.200;2022-10-22T15:14:13;100136.23;;;15.91;72.06
25510;BME280;13413;52.336;21.200;2022-10-22T15:17:33;100136.16;;;15.90;72.11
25510;BME280;13413;52.336;21.200;2022-10-22T15:20:58;100139.25;;;15.90;72.02
25510;BME280;13413;52.336;21.200;2022-10-22T15:24:23;100139.43;;;15.87;72.16
25510;BME280;13413;52.336;21.200;2022-10-22T15:27:41;100141.27;;;15.89;72.14
25510;BME280;13413;52.336;21.200;2022-10-22T15:31:00;100145.21;;;15.90;72.11
25510;BME280;13413;52.336;21.200;2022-10-22T15:34:32;100146.26;;;15.88;72.11
25510;BME280;13413;52.336;21.200;2022-10-22T15:37:52;100142.36;;;15.90;72.13
25510;BME280;13413;52.336;21.200;2022-10-22T15:41:11;100144.45;;;15.89;72.09
25510;BME280;13413;52.336;21.200;2022-10-22T15:44:44;100150.37;;;15.86;72.16
25510;BME280;13413;52.336;21.200;2022-10-22T15:48:04;100151.10;;;15.83;72.19
25510;BME280;13413;52.336;21.200;2022-10-22T15:51:24;100152.73;;;15.82;72.20
25510;BME280;13413;52.336;21.200;2022-10-22T15:54:55;100156.01;;;15.81;72.23
25510;BME280;13413;52.336;21.200;2022-10-22T15:58:13;100152.87;;;15.81;72.21
25510;BME280;13413;52.336;21.200;2022-10-22T16:01:32;100155.98;;;15.80;72.20
25510;BME280;13413;52.336;21.200;2022-10-22T16:05:09;100159.25;;;15.82;72.30
25510;BME280;13413;52.336;21.200;2022-10-22T16:08:40;100158.44;;;15.80;72.23
25510;BME280;13413;52.336;21.200;2022-10-22T16:12:00;100157.83;;;15.81;72.26
25510;BME280;13413;52.336;21.200;2022-10-22T16:15:19;100161.67;;;15.81;72.39
25510;BME280;13413;52.336;21.200;2022-10-22T16:18:39;100163.50;;;15.81;72.29
25510;BME280;13413;52.336;21.200;2022-10-22T16:22:13;100166.33;;;15.82;72.35
25510;BME280;13413;52.336;21.200;2022-10-22T16:34:44;100172.95;;;15.83;72.39
25510;BME280;13413;52.336;21.200;2022-10-22T16:38:03;100177.23;;;15.85;72.38
25510;BME280;13413;52.336;21.200;2022-10-22T16:41:24;100181.91;;;15.85;72.38
25510;BME280;13413;52.336;21.200;2022-10-22T16:45:18;100181.88;;;15.83;72.34
25510;BME280;13413;52.336;21.200;2022-10-22T16:54:39;100186.05;;;15.82;72.38
25510;BME280;13413;52.336;21.200;2022-10-22T16:57:59;100191.64;;;15.78;72.42
25510;BME280;13413;52.336;21.200;2022-10-22T17:01:22;100189.83;;;15.79;72.40
25510;BME280;13413;52.336;21.200;2022-10-22T17:04:55;100189.54;;;15.81;72.38
25510;BME280;13413;52.336;21.200;2022-10-22T17:08:15;100189.88;;;15.81;72.39
25510;BME280;13413;52.336;21.200;2022-10-22T17:11:36;100190.42;;;15.81;72.36
25510;BME280;13413;52.336;21.200;2022-10-22T17:15:11;100188.43;;;15.80;72.40
25510;BME280;13413;52.336;21.200;2022-10-22T17:18:44;100189.17;;;15.79;72.53
25510;BME280;13413;52.336;21.200;2022-10-22T17:22:03;100189.02;;;15.79;72.50
25510;BME280;13413;52.336;21.200;2022-10-22T17:25:31;100188.59;;;15.80;72.47
25510;BME280;13413;52.336;21.200;2022-10-22T17:29:07;100188.25;;;15.85;72.49
25510;BME280;13413;52.336;21.200;2022-10-22T17:32:36;100187.83;;;15.84;72.57
25510;BME280;13413;52.336;21.200;2022-10-22T17:49:22;100186.55;;;15.85;72.69
25510;BME280;13413;52.336;21.200;2022-10-22T17:52:41;100188.15;;;15.87;72.75
25510;BME280;13413;52.336;21.200;2022-10-22T17:56:02;100188.61;;;15.87;72.77
25510;BME280;13413;52.336;21.200;2022-10-22T17:59:36;100190.48;;;15.88;72.73
25510;BME280;13413;52.336;21.200;2022-10-22T18:03:11;100187.48;;;15.90;72.78
25510;BME280;13413;52.336;21.200;2022-10-22T18:06:32;100195.98;;;15.93;72.74
25510;BME280;13413;52.336;21.200;2022-10-22T18:09:58;100197.06;;;15.91;72.86
25510;BME280;13413;52.336;21.200;2022-10-22T18:13:17;100197.23;;;15.89;72.76
25510;BME280;13413;52.336;21.200;2022-10-22T18:16:44;100199.50;;;15.90;72.88
25510;BME280;13413;52.336;21.200;2022-10-22T18:20:18;100201.00;;;15.93;72.94
25510;BME280;13413;52.336;21.200;2022-10-22T18:34:08;100199.55;;;15.94;73.04
25510;BME280;13413;52.336;21.200;2022-10-22T18:37:33;100195.75;;;15.96;72.99
25510;BME280;13413;52.336;21.200;2022-10-22T18:40:52;100198.02;;;15.95;73.07
25510;BME280;13413;52.336;21.200;2022-10-22T18:44:14;100199.09;;;15.96;73.06
25510;BME280;13413;52.336;21.200;2022-10-22T18:47:33;100198.06;;;15.97;73.10
25510;BME280;13413;52.336;21.200;2022-10-22T18:51:00;100198.52;;;15.95;73.07
25510;BME280;13413;52.336;21.200;2022-10-22T18:54:36;100200.36;;;15.95;73.13
25510;BME280;13413;52.336;21.200;2022-10-22T18:57:56;100200.35;;;15.92;73.17
25510;BME280;13413;52.336;21.200;2022-10-22T19:01:19;100200.55;;;15.91;73.25
25510;BME280;13413;52.336;21.200;2022-10-22T19:04:52;100202.96;;;15.94;73.26
25510;BME280;13413;52.336;21.200;2022-10-22T19:08:26;100200.17;;;15.94;73.23
25510;BME280;13413;52.336;21.200;2022-10-22T19:11:47;100201.66;;;15.93;73.32
25510;BME280;13413;52.336;21.200;2022-10-22T19:15:20;100207.86;;;15.96;73.36
25510;BME280;13413;52.336;21.200;2022-10-22T19:19:03;100211.42;;;15.99;73.25
25510;BME280;13413;52.336;21.200;2022-10-22T19:22:31;100208.67;;;15.98;73.24
25510;BME280;13413;52.336;21.200;2022-10-22T19:26:04;100210.59;;;16.01;73.27
25510;BME280;13413;52.336;21.200;2022-10-22T19:29:32;100216.69;;;15.98;73.36
25510;BME280;13413;52.336;21.200;2022-10-22T19:32:52;100215.66;;;15.98;73.36
25510;BME280;13413;52.336;21.200;2022-10-22T19:36:14;100221.81;;;15.97;73.46
25510;BME280;13413;52.336;21.200;2022-10-22T19:39:35;100222.90;;;16.01;73.47
25510;BME280;13413;52.336;21.200;2022-10-22T19:42:55;100221.82;;;16.02;73.45
25510;BME280;13413;52.336;21.200;2022-10-22T19:46:14;100225.57;;;16.01;73.34
25510;BME280;13413;52.336;21.200;2022-10-22T19:49:49;100229.82;;;16.01;73.39
25510;BME280;13413;52.336;21.200;2022-10-22T19:53:24;100235.05;;;16.01;73.42
25510;BME280;13413;52.336;21.200;2022-10-22T19:56:45;100238.78;;;15.99;73.50
25510;BME280;13413;52.336;21.200;2022-10-22T20:00:06;100237.27;;;16.00;73.55
25510;BME280;13413;52.336;21.200;2022-10-22T20:03:25;100242.89;;;16.03;73.55
25510;BME280;13413;52.336;21.200;2022-10-22T20:06:45;100246.02;;;16.02;73.47
25510;BME280;13413;52.336;21.200;2022-10-22T20:10:19;100251.64;;;15.99;73.53
25510;BME280;13413;52.336;21.200;2022-10-22T20:13:39;100256.33;;;16.00;73.57
25510;BME280;13413;52.336;21.200;2022-10-22T20:16:59;100259.02;;;16.02;73.64
25510;BME280;13413;52.336;21.200;2022-10-22T20:20:18;100259.35;;;16.04;73.50
25510;BME280;13413;52.336;21.200;2022-10-22T20:23:38;100267.05;;;16.05;73.62
25510;BME280;13413;52.336;21.200;2022-10-22T20:26:58;100268.73;;;16.06;73.69
25510;BME280;13413;52.336;21.200;2022-10-22T20:30:25;100271.73;;;16.05;73.64
25510;BME280;13413;52.336;21.200;2022-10-22T20:34:01;100275.73;;;16.05;73.71
25510;BME280;13413;52.336;21.200;2022-10-22T20:37:27;100276.02;;;16.05;73.71
25510;BME280;13413;52.336;21.200;2022-10-22T20:40:48;100283.79;;;16.07;73.76
25510;BME280;13413;52.336;21.200;2022-10-22T20:44:08;100281.48;;;16.08;73.78
25510;BME280;13413;52.336;21.200;2022-10-22T20:47:37;100280.82;;;16.08;73.71
25510;BME280;13413;52.336;21.200;2022-10-22T20:50:57;100282.19;;;16.11;73.67
25510;BME280;13413;52.336;21.200;2022-10-22T21:00:19;100287.05;;;16.12;73.78